sensor_id;sensor_type;location;lat;lon;timestamp;temperature;humidity
5697;DHT22;2873;50.966;7.210;2022-07-23T00:02:05;20.60;99.90
5697;DHT22;2873;50.966;7.210;2022-07-23T00:04:32;20.60;99.90
5697;DHT22;2873;50.966;7.210;2022-07-23T00:06:58;20.70;99.90
5697;DHT22;2873;50.966;7.210;2022-07-23T00:09:23;20.60;99.90
5697;DHT22;2873;50.966;7.210;2022-07-23T00:11:49;20.60;99.90
5697;DHT22;2873;50.966;7.210;2022-07-23T00:14:14;20.60;99.90
5697;DHT22;2873;50.966;7.210;2022-07-23T00:16:40;20.70;99.90
5697;DHT22;2873;50.966;7.210;2022-07-23T00:19:05;20.70;99.90
5697;DHT22;2873;50.966;7.210;2022-07-23T00:21:31;20.70;99.90
5697;DHT22;2873;50.966;7.210;2022-07-23T00:23:57;20.70;99.90
5697;DHT22;2873;50.966;7.210;2022-07-23T00:26:22;20.60;99.90
5697;DHT22;2873;50.966;7.210;2022-07-23T00:28:48;20.60;99.90
5697;DHT22;2873;50.966;7.210;2022-07-23T00:31:13;20.70;99.90
5697;DHT22;2873;50.966;7.210;2022-07-23T00:33:39;20.60;99.90
5697;DHT22;2873;50.966;7.210;2022-07-23T00:36:05;20.60;99.90
5697;DHT22;2873;50.966;7.210;2022-07-23T00:38:30;20.60;99.90
5697;DHT22;2873;50.966;7.210;2022-07-23T00:40:56;20.60;99.90
5697;DHT22;2873;50.966;7.210;2022-07-23T00:43:21;20.60;99.90
5697;DHT22;2873;50.966;7.210;2022-07-23T00:45:49;20.60;99.90
5697;DHT22;2873;50.966;7.210;2022-07-23T00:48:15;20.60;99.90
5697;DHT22;2873;50.966;7.210;2022-07-23T00:50:40;20.60;99.90
5697;DHT22;2873;50.966;7.210;2022-07-23T00:53:06;20.60;99.90
5697;DHT22;2873;50.966;7.210;2022-07-23T00:55:33;20.70;99.90
5697;DHT22;2873;50.966;7.210;2022-07-23T00:57:59;20.50;99.90
5697;DHT22;2873;50.966;7.210;2022-07-23T01:00:26;20.50;99.90
5697;DHT22;2873;50.966;7.210;2022-07-23T01:02:51;20.60;99.90
5697;DHT22;2873;50.966;7.210;2022-07-23T01:05:17;20.60;99.90
5697;DHT22;2873;50.966;7.210;2022-07-23T01:07:50;20.60;99.90
5697;DHT22;2873;50.966;7.210;2022-07-23T01:10:16;20.50;99.90
5697;DHT22;2873;50.966;7.210;2022-07-23T01:13:04;20.60;99.90
5697;DHT22;2873;50.966;7.210;2022-07-23T01:15:30;20.60;99.90
5697;DHT22;2873;50.966;7.210;2022-07-23T01:17:56;20.40;99.90
5697;DHT22;2873;50.966;7.210;2022-07-23T01:20:22;20.40;99.90
5697;DHT22;2873;50.966;7.210;2022-07-23T01:22:48;20.40;99.90
5697;DHT22;2873;50.966;7.210;2022-07-23T01:25:14;20.40;99.90
5697;DHT22;2873;50.966;7.210;2022-07-23T01:27:39;20.40;99.90
5697;DHT22;2873;50.966;7.210;2022-07-23T01:30:06;20.40;99.90
5697;DHT22;2873;50.966;7.210;2022-07-23T01:32:31;20.40;99.90
5697;DHT22;2873;50.966;7.210;2022-07-23T01:34:57;20.40;99.90
5697;DHT22;2873;50.966;7.210;2022-07-23T01:37:23;20.50;99.90
5697;DHT22;2873;50.966;7.210;2022-07-23T01:39:49;20.40;99.90
5697;DHT22;2873;50.966;7.210;2022-07-23T01:42:14;20.60;99.90
5697;DHT22;2873;50.966;7.210;2022-07-23T01:44:40;20.40;99.90
5697;DHT22;2873;50.966;7.210;2022-07-23T01:47:05;20.50;99.90
5697;DHT22;2873;50.966;7.210;2022-07-23T01:49:31;20.40;99.90
5697;DHT22;2873;50.966;7.210;2022-07-23T01:51:56;20.30;99.90
5697;DHT22;2873;50.966;7.210;2022-07-23T01:54:26;20.30;99.90
5697;DHT22;2873;50.966;7.210;2022-07-23T01:56:52;20.10;99.90
5697;DHT22;2873;50.966;7.210;2022-07-23T01:59:17;20.10;99.90
5697;DHT22;2873;50.966;7.210;2022-07-23T02:01:43;20.00;99.90
5697;DHT22;2873;50.966;7.210;2022-07-23T02:04:09;20.00;99.90
5697;DHT22;2873;50.966;7.210;2022-07-23T02:06:34;19.80;99.90
5697;DHT22;2873;50.966;7.210;2022-07-23T02:09:00;19.80;99.90
5697;DHT22;2873;50.966;7.210;2022-07-23T02:11:25;19.90;99.90
5697;DHT22;2873;50.966;7.210;2022-07-23T02:13:51;19.80;99.90
5697;DHT22;2873;50.966;7.210;2022-07-23T02:16:16;19.80;99.90
5697;DHT22;2873;50.966;7.210;2022-07-23T02:18:42;19.60;99.90
5697;DHT22;2873;50.966;7.210;2022-07-23T02:21:07;19.60;99.90
5697;DHT22;2873;50.966;7.210;2022-07-23T02:23:33;19.60;99.90
5697;DHT22;2873;50.966;7.210;2022-07-23T02:25:59;19.60;99.90
5697;DHT22;2873;50.966;7.210;2022-07-23T02:28:24;19.50;99.90
5697;DHT22;2873;50.966;7.210;2022-07-23T02:30:50;19.60;99.90
5697;DHT22;2873;50.966;7.210;2022-07-23T02:33:16;19.60;99.90
5697;DHT22;2873;50.966;7.210;2022-07-23T02:35:41;19.50;99.90
5697;DHT22;2873;50.966;7.210;2022-07-23T02:38:07;19.60;99.90
5697;DHT22;2873;50.966;7.210;2022-07-23T02:40:32;19.50;99.90
5697;DHT22;2873;50.966;7.210;2022-07-23T02:42:58;19.50;99.90
5697;DHT22;2873;50.966;7.210;2022-07-23T02:45:23;19.50;99.90
5697;DHT22;2873;50.966;7.210;2022-07-23T02:47:49;19.50;99.90
5697;DHT22;2873;50.966;7.210;2022-07-23T02:50:15;19.50;99.90
5697;DHT22;2873;50.966;7.210;2022-07-23T02:52:40;19.40;99.90
5697;DHT22;2873;50.966;7.210;2022-07-23T02:55:06;19.30;99.90
5697;DHT22;2873;50.966;7.210;2022-07-23T02:57:32;19.30;99.90
5697;DHT22;2873;50.966;7.210;2022-07-23T02:59:57;19.30;99.90
5697;DHT22;2873;50.966;7.210;2022-07-23T03:02:23;19.30;99.90
5697;DHT22;2873;50.966;7.210;2022-07-23T03:04:49;19.30;99.90
5697;DHT22;2873;50.966;7.210;2022-07-23T03:07:16;19.30;99.90
5697;DHT22;2873;50.966;7.210;2022-07-23T03:09:42;19.30;99.90
5697;DHT22;2873;50.966;7.210;2022-07-23T03:12:08;19.30;99.90
5697;DHT22;2873;50.966;7.210;2022-07-23T03:14:33;19.40;99.90
5697;DHT22;2873;50.966;7.210;2022-07-23T03:16:59;19.30;99.90
5697;DHT22;2873;50.966;7.210;2022-07-23T03:19:25;19.30;99.90
5697;DHT22;2873;50.966;7.210;2022-07-23T03:21:51;19.30;99.90
5697;DHT22;2873;50.966;7.210;2022-07-23T03:24:17;19.30;99.90
5697;DHT22;2873;50.966;7.210;2022-07-23T03:26:43;19.30;99.90
5697;DHT22;2873;50.966;7.210;2022-07-23T03:29:10;19.10;99.90
5697;DHT22;2873;50.966;7.210;2022-07-23T03:31:36;19.20;99.90
5697;DHT22;2873;50.966;7.210;2022-07-23T03:34:01;19.10;99.90
5697;DHT22;2873;50.966;7.210;2022-07-23T03:36:27;19.10;99.90
5697;DHT22;2873;50.966;7.210;2022-07-23T03:38:53;19.10;99.90
5697;DHT22;2873;50.966;7.210;2022-07-23T03:41:19;19.10;99.90
5697;DHT22;2873;50.966;7.210;2022-07-23T03:43:45;19.00;99.90
5697;DHT22;2873;50.966;7.210;2022-07-23T03:46:11;19.00;99.90
5697;DHT22;2873;50.966;7.210;2022-07-23T03:48:36;18.90;99.90
5697;DHT22;2873;50.966;7.210;2022-07-23T03:51:02;18.90;99.90
5697;DHT22;2873;50.966;7.210;2022-07-23T03:53:28;18.90;99.90
5697;DHT22;2873;50.966;7.210;2022-07-23T03:55:54;18.90;99.90
5697;DHT22;2873;50.966;7.210;2022-07-23T03:58:20;18.80;99.90
5697;DHT22;2873;50.966;7.210;2022-07-23T04:00:45;18.80;99.90
5697;DHT22;2873;50.966;7.210;2022-07-23T04:03:11;18.90;99.90
5697;DHT22;2873;50.966;7.210;2022-07-23T04:05:37;18.80;99.90
5697;DHT22;2873;50.966;7.210;2022-07-23T04:08:02;18.80;99.90
5697;DHT22;2873;50.966;7.210;2022-07-23T04:10:28;18.70;99.90
5697;DHT22;2873;50.966;7.210;2022-07-23T04:12:54;18.70;99.90
5697;DHT22;2873;50.966;7.210;2022-07-23T04:15:19;18.70;99.90
5697;DHT22;2873;50.966;7.210;2022-07-23T04:17:45;18.60;99.90
5697;DHT22;2873;50.966;7.210;2022-07-23T04:20:12;18.50;99.90
5697;DHT22;2873;50.966;7.210;2022-07-23T04:22:38;18.50;99.90
5697;DHT22;2873;50.966;7.210;2022-07-23T04:25:04;18.50;99.90
5697;DHT22;2873;50.966;7.210;2022-07-23T04:27:30;18.50;99.90
5697;DHT22;2873;50.966;7.210;2022-07-23T04:29:55;18.60;99.90
5697;DHT22;2873;50.966;7.210;2022-07-23T04:32:21;18.40;99.90
5697;DHT22;2873;50.966;7.210;2022-07-23T04:34:46;18.40;99.90
5697;DHT22;2873;50.966;7.210;2022-07-23T04:37:12;18.40;99.90
5697;DHT22;2873;50.966;7.210;2022-07-23T04:39:37;18.20;99.90
5697;DHT22;2873;50.966;7.210;2022-07-23T04:42:03;18.10;99.90
5697;DHT22;2873;50.966;7.210;2022-07-23T04:44:29;18.10;99.90
5697;DHT22;2873;50.966;7.210;2022-07-23T04:46:54;18.10;99.90
5697;DHT22;2873;50.966;7.210;2022-07-23T04:49:20;18.10;99.90
5697;DHT22;2873;50.966;7.210;2022-07-23T04:51:45;18.10;99.90
5697;DHT22;2873;50.966;7.210;2022-07-23T04:54:11;18.20;99.90
5697;DHT22;2873;50.966;7.210;2022-07-23T04:56:37;18.20;99.90
5697;DHT22;2873;50.966;7.210;2022-07-23T04:59:02;18.20;99.90
5697;DHT22;2873;50.966;7.210;2022-07-23T05:01:28;18.30;99.90
5697;DHT22;2873;50.966;7.210;2022-07-23T05:03:53;18.30;99.90
5697;DHT22;2873;50.966;7.210;2022-07-23T05:06:19;18.30;99.90
5697;DHT22;2873;50.966;7.210;2022-07-23T05:08:44;18.40;99.90
5697;DHT22;2873;50.966;7.210;2022-07-23T05:11:10;18.30;99.90
5697;DHT22;2873;50.966;7.210;2022-07-23T05:13:35;18.40;99.90
5697;DHT22;2873;50.966;7.210;2022-07-23T05:16:01;18.40;99.90
5697;DHT22;2873;50.966;7.210;2022-07-23T05:18:27;18.40;99.90
5697;DHT22;2873;50.966;7.210;2022-07-23T05:20:52;18.30;99.90
5697;DHT22;2873;50.966;7.210;2022-07-23T05:23:18;18.40;99.90
5697;DHT22;2873;50.966;7.210;2022-07-23T05:25:43;18.30;99.90
5697;DHT22;2873;50.966;7.210;2022-07-23T05:28:09;18.40;99.90
5697;DHT22;2873;50.966;7.210;2022-07-23T05:30:34;18.60;99.90
5697;DHT22;2873;50.966;7.210;2022-07-23T05:33:00;18.30;99.90
5697;DHT22;2873;50.966;7.210;2022-07-23T05:35:25;18.30;99.90
5697;DHT22;2873;50.966;7.210;2022-07-23T05:37:51;18.40;99.90
5697;DHT22;2873;50.966;7.210;2022-07-23T05:40:18;18.50;99.90
5697;DHT22;2873;50.966;7.210;2022-07-23T05:42:43;18.60;99.90
5697;DHT22;2873;50.966;7.210;2022-07-23T05:45:09;18.80;99.90
5697;DHT22;2873;50.966;7.210;2022-07-23T05:47:40;18.70;99.90
5697;DHT22;2873;50.966;7.210;2022-07-23T05:50:06;18.70;99.90
5697;DHT22;2873;50.966;7.210;2022-07-23T05:52:31;18.60;99.90
5697;DHT22;2873;50.966;7.210;2022-07-23T05:54:57;18.70;99.90
5697;DHT22;2873;50.966;7.210;2022-07-23T05:57:23;18.80;99.90
5697;DHT22;2873;50.966;7.210;2022-07-23T05:59:48;18.80;99.90
5697;DHT22;2873;50.966;7.210;2022-07-23T06:02:14;18.80;99.90
5697;DHT22;2873;50.966;7.210;2022-07-23T06:04:39;18.80;99.90
5697;DHT22;2873;50.966;7.210;2022-07-23T06:07:05;18.90;99.90
5697;DHT22;2873;50.966;7.210;2022-07-23T06:09:30;18.90;99.90
5697;DHT22;2873;50.966;7.210;2022-07-23T06:11:56;19.00;99.90
5697;DHT22;2873;50.966;7.210;2022-07-23T06:14:21;19.00;99.90
5697;DHT22;2873;50.966;7.210;2022-07-23T06:16:47;19.00;99.90
5697;DHT22;2873;50.966;7.210;2022-07-23T06:19:12;19.00;99.90
5697;DHT22;2873;50.966;7.210;2022-07-23T06:21:38;19.10;99.90
5697;DHT22;2873;50.966;7.210;2022-07-23T06:24:04;19.00;99.90
5697;DHT22;2873;50.966;7.210;2022-07-23T06:26:29;19.10;99.90
5697;DHT22;2873;50.966;7.210;2022-07-23T06:28:55;19.10;99.90
5697;DHT22;2873;50.966;7.210;2022-07-23T06:31:21;19.10;99.90
5697;DHT22;2873;50.966;7.210;2022-07-23T06:33:47;19.20;99.90
5697;DHT22;2873;50.966;7.210;2022-07-23T06:36:12;19.10;99.90
5697;DHT22;2873;50.966;7.210;2022-07-23T06:38:38;19.20;99.90
5697;DHT22;2873;50.966;7.210;2022-07-23T06:41:03;19.20;99.90
5697;DHT22;2873;50.966;7.210;2022-07-23T06:43:30;19.30;99.90
5697;DHT22;2873;50.966;7.210;2022-07-23T06:45:56;19.40;99.90
5697;DHT22;2873;50.966;7.210;2022-07-23T06:48:22;19.50;99.90
5697;DHT22;2873;50.966;7.210;2022-07-23T06:50:48;19.70;99.90
5697;DHT22;2873;50.966;7.210;2022-07-23T06:53:13;19.50;99.90
5697;DHT22;2873;50.966;7.210;2022-07-23T06:55:39;19.60;99.90
5697;DHT22;2873;50.966;7.210;2022-07-23T06:58:05;19.70;99.90
5697;DHT22;2873;50.966;7.210;2022-07-23T07:00:31;19.70;99.90
5697;DHT22;2873;50.966;7.210;2022-07-23T07:02:57;19.80;99.90
5697;DHT22;2873;50.966;7.210;2022-07-23T07:05:23;19.80;99.90
5697;DHT22;2873;50.966;7.210;2022-07-23T07:07:50;19.80;99.90
5697;DHT22;2873;50.966;7.210;2022-07-23T07:10:16;19.90;99.90
5697;DHT22;2873;50.966;7.210;2022-07-23T07:12:43;19.90;99.90
5697;DHT22;2873;50.966;7.210;2022-07-23T07:15:08;20.00;99.90
5697;DHT22;2873;50.966;7.210;2022-07-23T07:17:34;20.00;99.90
5697;DHT22;2873;50.966;7.210;2022-07-23T07:19:59;20.10;99.90
5697;DHT22;2873;50.966;7.210;2022-07-23T07:22:25;20.10;99.90
5697;DHT22;2873;50.966;7.210;2022-07-23T07:24:50;20.20;99.90
5697;DHT22;2873;50.966;7.210;2022-07-23T07:27:16;20.30;99.90
5697;DHT22;2873;50.966;7.210;2022-07-23T07:29:42;20.30;99.90
5697;DHT22;2873;50.966;7.210;2022-07-23T07:32:07;20.30;99.90
5697;DHT22;2873;50.966;7.210;2022-07-23T07:34:33;20.40;99.90
5697;DHT22;2873;50.966;7.210;2022-07-23T07:36:58;20.50;99.90
5697;DHT22;2873;50.966;7.210;2022-07-23T07:39:24;20.50;99.90
5697;DHT22;2873;50.966;7.210;2022-07-23T07:41:50;20.60;99.90
5697;DHT22;2873;50.966;7.210;2022-07-23T07:44:15;20.60;99.90
5697;DHT22;2873;50.966;7.210;2022-07-23T07:46:41;20.60;99.90
5697;DHT22;2873;50.966;7.210;2022-07-23T07:49:07;20.70;99.90
5697;DHT22;2873;50.966;7.210;2022-07-23T07:51:33;20.70;99.90
5697;DHT22;2873;50.966;7.210;2022-07-23T07:53:59;20.80;99.90
5697;DHT22;2873;50.966;7.210;2022-07-23T07:56:25;20.90;99.90
5697;DHT22;2873;50.966;7.210;2022-07-23T07:58:50;20.90;99.90
5697;DHT22;2873;50.966;7.210;2022-07-23T08:01:16;21.00;99.90
5697;DHT22;2873;50.966;7.210;2022-07-23T08:03:42;21.00;99.90
5697;DHT22;2873;50.966;7.210;2022-07-23T08:06:08;20.90;99.90
5697;DHT22;2873;50.966;7.210;2022-07-23T08:08:33;20.90;99.90
5697;DHT22;2873;50.966;7.210;2022-07-23T08:10:59;21.00;99.90
5697;DHT22;2873;50.966;7.210;2022-07-23T08:13:24;21.20;99.90
5697;DHT22;2873;50.966;7.210;2022-07-23T08:15:50;21.20;99.90
5697;DHT22;2873;50.966;7.210;2022-07-23T08:18:18;21.20;99.90
5697;DHT22;2873;50.966;7.210;2022-07-23T08:20:44;21.30;99.90
5697;DHT22;2873;50.966;7.210;2022-07-23T08:23:09;21.30;99.90
5697;DHT22;2873;50.966;7.210;2022-07-23T08:25:40;21.40;99.90
5697;DHT22;2873;50.966;7.210;2022-07-23T08:28:09;21.50;99.90
5697;DHT22;2873;50.966;7.210;2022-07-23T08:30:36;21.50;99.90
5697;DHT22;2873;50.966;7.210;2022-07-23T08:35:35;21.70;99.90
5697;DHT22;2873;50.966;7.210;2022-07-23T08:38:05;21.70;99.90
5697;DHT22;2873;50.966;7.210;2022-07-23T08:40:32;21.80;99.90
5697;DHT22;2873;50.966;7.210;2022-07-23T08:42:58;21.90;99.90
5697;DHT22;2873;50.966;7.210;2022-07-23T08:45:26;21.90;99.90
5697;DHT22;2873;50.966;7.210;2022-07-23T08:47:56;22.00;99.90
5697;DHT22;2873;50.966;7.210;2022-07-23T08:50:24;22.10;99.90
5697;DHT22;2873;50.966;7.210;2022-07-23T08:52:51;22.10;99.90
5697;DHT22;2873;50.966;7.210;2022-07-23T08:55:22;22.20;99.90
5697;DHT22;2873;50.966;7.210;2022-07-23T08:57:49;22.20;99.90
5697;DHT22;2873;50.966;7.210;2022-07-23T09:00:15;22.30;99.90
5697;DHT22;2873;50.966;7.210;2022-07-23T09:02:42;22.40;99.90
5697;DHT22;2873;50.966;7.210;2022-07-23T09:05:10;22.30;99.90
5697;DHT22;2873;50.966;7.210;2022-07-23T09:08:14;22.40;99.90
5697;DHT22;2873;50.966;7.210;2022-07-23T09:16:19;22.50;99.90
5697;DHT22;2873;50.966;7.210;2022-07-23T09:18:47;22.50;99.90
5697;DHT22;2873;50.966;7.210;2022-07-23T09:21:22;22.50;99.90
5697;DHT22;2873;50.966;7.210;2022-07-23T09:23:54;22.60;99.90
5697;DHT22;2873;50.966;7.210;2022-07-23T09:26:23;22.60;99.90
5697;DHT22;2873;50.966;7.210;2022-07-23T09:28:55;22.60;99.90
5697;DHT22;2873;50.966;7.210;2022-07-23T09:31:22;22.70;99.90
5697;DHT22;2873;50.966;7.210;2022-07-23T09:33:48;22.70;99.90
5697;DHT22;2873;50.966;7.210;2022-07-23T09:36:13;22.80;99.90
5697;DHT22;2873;50.966;7.210;2022-07-23T09:38:50;22.90;99.90
5697;DHT22;2873;50.966;7.210;2022-07-23T09:41:16;22.90;99.90
5697;DHT22;2873;50.966;7.210;2022-07-23T09:43:42;22.90;99.90
5697;DHT22;2873;50.966;7.210;2022-07-23T09:48:43;22.90;99.90
5697;DHT22;2873;50.966;7.210;2022-07-23T09:51:09;22.90;99.90
5697;DHT22;2873;50.966;7.210;2022-07-23T09:53:34;23.00;99.90
5697;DHT22;2873;50.966;7.210;2022-07-23T09:56:00;23.00;99.90
5697;DHT22;2873;50.966;7.210;2022-07-23T09:58:27;23.10;99.90
5697;DHT22;2873;50.966;7.210;2022-07-23T10:00:53;23.20;99.90
5697;DHT22;2873;50.966;7.210;2022-07-23T10:03:19;23.30;99.90
5697;DHT22;2873;50.966;7.210;2022-07-23T10:05:46;23.40;99.90
5697;DHT22;2873;50.966;7.210;2022-07-23T10:08:12;23.50;99.90
5697;DHT22;2873;50.966;7.210;2022-07-23T10:10:39;23.70;99.90
5697;DHT22;2873;50.966;7.210;2022-07-23T10:13:05;23.70;99.90
5697;DHT22;2873;50.966;7.210;2022-07-23T10:15:50;23.70;99.90
5697;DHT22;2873;50.966;7.210;2022-07-23T10:18:16;23.80;99.90
5697;DHT22;2873;50.966;7.210;2022-07-23T10:20:42;23.80;99.90
5697;DHT22;2873;50.966;7.210;2022-07-23T10:23:24;23.90;99.90
5697;DHT22;2873;50.966;7.210;2022-07-23T10:37:05;24.20;99.90
5697;DHT22;2873;50.966;7.210;2022-07-23T10:39:34;24.30;99.90
5697;DHT22;2873;50.966;7.210;2022-07-23T10:42:14;24.40;99.90
5697;DHT22;2873;50.966;7.210;2022-07-23T10:47:08;24.60;99.90
5697;DHT22;2873;50.966;7.210;2022-07-23T10:49:37;24.70;99.90
5697;DHT22;2873;50.966;7.210;2022-07-23T10:54:45;24.80;99.90
5697;DHT22;2873;50.966;7.210;2022-07-23T10:57:12;24.90;99.90
5697;DHT22;2873;50.966;7.210;2022-07-23T11:02:36;25.00;99.90
5697;DHT22;2873;50.966;7.210;2022-07-23T11:07:32;25.10;99.90
5697;DHT22;2873;50.966;7.210;2022-07-23T11:09:57;25.00;99.90
5697;DHT22;2873;50.966;7.210;2022-07-23T11:15:06;25.00;99.90
5697;DHT22;2873;50.966;7.210;2022-07-23T11:17:38;25.20;99.90
5697;DHT22;2873;50.966;7.210;2022-07-23T11:25:03;25.50;99.90
5697;DHT22;2873;50.966;7.210;2022-07-23T11:27:39;25.50;99.90
5697;DHT22;2873;50.966;7.210;2022-07-23T11:30:08;25.70;99.90
5697;DHT22;2873;50.966;7.210;2022-07-23T11:32:36;25.70;99.90
5697;DHT22;2873;50.966;7.210;2022-07-23T11:35:25;25.70;99.90
5697;DHT22;2873;50.966;7.210;2022-07-23T11:37:52;25.90;99.90
5697;DHT22;2873;50.966;7.210;2022-07-23T11:40:24;26.00;99.90
5697;DHT22;2873;50.966;7.210;2022-07-23T11:42:54;26.10;99.90
5697;DHT22;2873;50.966;7.210;2022-07-23T11:45:21;26.20;99.90
5697;DHT22;2873;50.966;7.210;2022-07-23T11:47:47;26.30;99.90
5697;DHT22;2873;50.966;7.210;2022-07-23T11:50:13;26.40;99.90
5697;DHT22;2873;50.966;7.210;2022-07-23T11:52:39;26.30;99.90
5697;DHT22;2873;50.966;7.210;2022-07-23T11:55:09;26.40;99.90
5697;DHT22;2873;50.966;7.210;2022-07-23T11:57:40;26.50;99.90
5697;DHT22;2873;50.966;7.210;2022-07-23T12:00:14;26.60;99.90
5697;DHT22;2873;50.966;7.210;2022-07-23T12:02:45;26.70;99.90
5697;DHT22;2873;50.966;7.210;2022-07-23T12:05:15;26.80;99.90
5697;DHT22;2873;50.966;7.210;2022-07-23T12:07:44;27.10;99.90
5697;DHT22;2873;50.966;7.210;2022-07-23T12:12:46;27.50;99.90
5697;DHT22;2873;50.966;7.210;2022-07-23T12:15:13;27.70;99.90
5697;DHT22;2873;50.966;7.210;2022-07-23T12:17:41;27.90;99.90
5697;DHT22;2873;50.966;7.210;2022-07-23T12:20:09;28.20;99.90
5697;DHT22;2873;50.966;7.210;2022-07-23T12:22:45;28.50;99.90
5697;DHT22;2873;50.966;7.210;2022-07-23T12:25:17;28.70;99.90
5697;DHT22;2873;50.966;7.210;2022-07-23T12:27:43;28.70;99.90
5697;DHT22;2873;50.966;7.210;2022-07-23T12:32:46;29.00;99.90
5697;DHT22;2873;50.966;7.210;2022-07-23T12:35:12;29.10;99.90
5697;DHT22;2873;50.966;7.210;2022-07-23T12:37:41;29.10;99.90
5697;DHT22;2873;50.966;7.210;2022-07-23T12:40:26;28.90;99.90
5697;DHT22;2873;50.966;7.210;2022-07-23T12:42:58;29.20;99.90
5697;DHT22;2873;50.966;7.210;2022-07-23T12:45:26;29.20;99.90
5697;DHT22;2873;50.966;7.210;2022-07-23T12:47:57;29.50;99.90
5697;DHT22;2873;50.966;7.210;2022-07-23T12:50:44;29.50;99.90
5697;DHT22;2873;50.966;7.210;2022-07-23T12:53:16;29.50;99.90
5697;DHT22;2873;50.966;7.210;2022-07-23T12:55:43;29.70;99.90
5697;DHT22;2873;50.966;7.210;2022-07-23T12:58:11;29.80;99.90
5697;DHT22;2873;50.966;7.210;2022-07-23T13:03:40;29.80;99.90
5697;DHT22;2873;50.966;7.210;2022-07-23T13:06:08;29.90;99.90
5697;DHT22;2873;50.966;7.210;2022-07-23T13:08:36;30.10;99.90
5697;DHT22;2873;50.966;7.210;2022-07-23T13:11:03;30.00;99.90
5697;DHT22;2873;50.966;7.210;2022-07-23T13:13:31;30.00;99.90
5697;DHT22;2873;50.966;7.210;2022-07-23T13:15:58;30.00;99.90
5697;DHT22;2873;50.966;7.210;2022-07-23T13:18:24;30.10;99.90
5697;DHT22;2873;50.966;7.210;2022-07-23T13:20:50;30.20;99.90
5697;DHT22;2873;50.966;7.210;2022-07-23T13:23:17;30.30;99.90
5697;DHT22;2873;50.966;7.210;2022-07-23T13:25:43;30.30;99.90
5697;DHT22;2873;50.966;7.210;2022-07-23T13:28:09;30.40;99.90
5697;DHT22;2873;50.966;7.210;2022-07-23T13:30:35;30.50;99.90
5697;DHT22;2873;50.966;7.210;2022-07-23T13:33:03;30.50;99.90
5697;DHT22;2873;50.966;7.210;2022-07-23T13:35:29;30.40;99.90
5697;DHT22;2873;50.966;7.210;2022-07-23T13:37:54;30.70;99.90
5697;DHT22;2873;50.966;7.210;2022-07-23T13:40:21;30.80;99.90
5697;DHT22;2873;50.966;7.210;2022-07-23T13:42:46;30.70;99.90
5697;DHT22;2873;50.966;7.210;2022-07-23T13:45:12;30.80;99.90
5697;DHT22;2873;50.966;7.210;2022-07-23T13:47:38;30.80;99.90
5697;DHT22;2873;50.966;7.210;2022-07-23T13:50:05;30.80;99.90
5697;DHT22;2873;50.966;7.210;2022-07-23T13:52:31;30.80;99.90
5697;DHT22;2873;50.966;7.210;2022-07-23T13:55:02;30.70;99.90
5697;DHT22;2873;50.966;7.210;2022-07-23T13:57:29;30.70;99.90
5697;DHT22;2873;50.966;7.210;2022-07-23T13:59:55;30.80;99.90
5697;DHT22;2873;50.966;7.210;2022-07-23T14:02:21;30.70;99.90
5697;DHT22;2873;50.966;7.210;2022-07-23T14:04:46;30.80;99.90
5697;DHT22;2873;50.966;7.210;2022-07-23T14:07:12;30.70;99.90
5697;DHT22;2873;50.966;7.210;2022-07-23T14:09:37;30.50;99.90
5697;DHT22;2873;50.966;7.210;2022-07-23T14:12:04;30.60;99.90
5697;DHT22;2873;50.966;7.210;2022-07-23T14:14:30;30.60;99.90
5697;DHT22;2873;50.966;7.210;2022-07-23T14:16:56;30.70;99.90
5697;DHT22;2873;50.966;7.210;2022-07-23T14:19:22;30.70;99.90
5697;DHT22;2873;50.966;7.210;2022-07-23T14:21:47;30.70;99.90
5697;DHT22;2873;50.966;7.210;2022-07-23T14:24:16;30.70;99.90
5697;DHT22;2873;50.966;7.210;2022-07-23T14:26:42;30.80;99.90
5697;DHT22;2873;50.966;7.210;2022-07-23T14:29:08;30.60;99.90
5697;DHT22;2873;50.966;7.210;2022-07-23T14:31:34;30.60;99.90
5697;DHT22;2873;50.966;7.210;2022-07-23T14:34:00;30.60;99.90
5697;DHT22;2873;50.966;7.210;2022-07-23T14:36:26;30.70;99.90
5697;DHT22;2873;50.966;7.210;2022-07-23T14:38:51;30.80;99.90
5697;DHT22;2873;50.966;7.210;2022-07-23T14:41:17;30.70;99.90
5697;DHT22;2873;50.966;7.210;2022-07-23T14:43:43;30.70;99.90
5697;DHT22;2873;50.966;7.210;2022-07-23T14:46:09;30.70;99.90
5697;DHT22;2873;50.966;7.210;2022-07-23T14:48:36;30.80;99.90
5697;DHT22;2873;50.966;7.210;2022-07-23T14:51:02;30.60;99.90
5697;DHT22;2873;50.966;7.210;2022-07-23T14:53:27;30.50;99.90
5697;DHT22;2873;50.966;7.210;2022-07-23T14:55:53;30.50;99.90
5697;DHT22;2873;50.966;7.210;2022-07-23T14:58:18;30.50;99.90
5697;DHT22;2873;50.966;7.210;2022-07-23T15:00:44;30.60;99.90
5697;DHT22;2873;50.966;7.210;2022-07-23T15:03:10;30.60;99.90
5697;DHT22;2873;50.966;7.210;2022-07-23T15:05:35;30.50;99.90
5697;DHT22;2873;50.966;7.210;2022-07-23T15:08:01;30.50;99.90
5697;DHT22;2873;50.966;7.210;2022-07-23T15:10:26;30.50;99.90
5697;DHT22;2873;50.966;7.210;2022-07-23T15:12:52;30.50;99.90
5697;DHT22;2873;50.966;7.210;2022-07-23T15:15:18;30.30;99.90
5697;DHT22;2873;50.966;7.210;2022-07-23T15:17:43;30.30;99.90
5697;DHT22;2873;50.966;7.210;2022-07-23T15:20:09;30.20;99.90
5697;DHT22;2873;50.966;7.210;2022-07-23T15:22:35;30.30;99.90
5697;DHT22;2873;50.966;7.210;2022-07-23T15:25:00;30.40;99.90
5697;DHT22;2873;50.966;7.210;2022-07-23T15:27:27;30.50;99.90
5697;DHT22;2873;50.966;7.210;2022-07-23T15:29:53;30.40;99.90
5697;DHT22;2873;50.966;7.210;2022-07-23T15:32:18;30.50;99.90
5697;DHT22;2873;50.966;7.210;2022-07-23T15:34:44;30.50;99.90
5697;DHT22;2873;50.966;7.210;2022-07-23T15:37:10;30.50;99.90
5697;DHT22;2873;50.966;7.210;2022-07-23T15:39:35;30.40;99.90
5697;DHT22;2873;50.966;7.210;2022-07-23T15:42:02;30.30;99.90
5697;DHT22;2873;50.966;7.210;2022-07-23T15:44:28;30.40;99.90
5697;DHT22;2873;50.966;7.210;2022-07-23T15:46:54;30.30;99.70
5697;DHT22;2873;50.966;7.210;2022-07-23T15:49:21;30.10;99.20
5697;DHT22;2873;50.966;7.210;2022-07-23T15:51:47;30.10;99.80
5697;DHT22;2873;50.966;7.210;2022-07-23T15:54:12;30.00;99.90
5697;DHT22;2873;50.966;7.210;2022-07-23T15:56:38;30.00;99.90
5697;DHT22;2873;50.966;7.210;2022-07-23T15:59:04;30.10;99.90
5697;DHT22;2873;50.966;7.210;2022-07-23T16:01:29;30.00;99.90
5697;DHT22;2873;50.966;7.210;2022-07-23T16:03:57;30.00;99.90
5697;DHT22;2873;50.966;7.210;2022-07-23T16:06:24;30.00;99.90
5697;DHT22;2873;50.966;7.210;2022-07-23T16:08:50;29.90;99.50
5697;DHT22;2873;50.966;7.210;2022-07-23T16:11:16;29.80;99.90
5697;DHT22;2873;50.966;7.210;2022-07-23T16:13:41;29.90;99.90
5697;DHT22;2873;50.966;7.210;2022-07-23T16:16:08;29.90;99.90
5697;DHT22;2873;50.966;7.210;2022-07-23T16:18:34;29.90;99.90
5697;DHT22;2873;50.966;7.210;2022-07-23T16:20:59;29.90;99.80
5697;DHT22;2873;50.966;7.210;2022-07-23T16:23:25;29.80;99.80
5697;DHT22;2873;50.966;7.210;2022-07-23T16:25:50;29.90;99.90
5697;DHT22;2873;50.966;7.210;2022-07-23T16:28:16;30.00;99.60
5697;DHT22;2873;50.966;7.210;2022-07-23T16:30:42;29.90;99.90
5697;DHT22;2873;50.966;7.210;2022-07-23T16:33:07;29.90;99.90
5697;DHT22;2873;50.966;7.210;2022-07-23T16:35:34;29.80;99.30
5697;DHT22;2873;50.966;7.210;2022-07-23T16:37:59;29.80;99.90
5697;DHT22;2873;50.966;7.210;2022-07-23T16:40:27;29.70;99.80
5697;DHT22;2873;50.966;7.210;2022-07-23T16:42:53;29.70;99.90
5697;DHT22;2873;50.966;7.210;2022-07-23T16:45:19;29.60;99.90
5697;DHT22;2873;50.966;7.210;2022-07-23T16:47:46;29.50;99.80